createdAt,value
2023-01-07T00:00:19.264Z,100484.41
2023-01-07T00:02:45.863Z,100485.13
2023-01-07T00:05:12.454Z,100475.50
2023-01-07T00:07:38.932Z,100479.94
2023-01-07T00:10:05.629Z,100476.34
2023-01-07T00:12:32.463Z,100481.03
2023-01-07T00:14:58.995Z,100474.66
2023-01-07T00:17:25.476Z,100468.50
2023-01-07T00:19:52.158Z,100471.03
2023-01-07T00:22:18.728Z,100467.53
2023-01-07T00:24:45.290Z,100470.91
2023-01-07T00:27:12.024Z,100459.22
2023-01-07T00:29:38.687Z,100456.09
2023-01-07T00:32:05.219Z,100457.03
2023-01-07T00:34:31.878Z,100451.72
2023-01-07T00:37:18.560Z,100458.00
2023-01-07T00:39:45.278Z,100452.94
2023-01-07T00:42:31.138Z,100452.94
2023-01-07T00:44:58.135Z,100443.41
2023-01-07T00:47:24.765Z,100446.06
2023-01-07T00:49:51.439Z,100443.63
2023-01-07T00:52:18.004Z,100433.88
2023-01-07T00:54:44.552Z,100435.78
2023-01-07T00:57:12.957Z,100435.44
2023-01-07T00:59:39.684Z,100430.13
2023-01-07T01:02:06.594Z,100428.31
2023-01-07T01:04:33.343Z,100424.69
2023-01-07T01:06:59.998Z,100423.63
2023-01-07T01:09:26.652Z,100426.06
2023-01-07T01:11:53.358Z,100423.63
2023-01-07T01:14:20.128Z,100422.78
2023-01-07T01:16:46.714Z,100414.72
2023-01-07T01:19:13.318Z,100412.16
2023-01-07T01:21:42.944Z,100412.91
2023-01-07T01:24:09.660Z,100423.84
2023-01-07T01:26:36.311Z,100425.91
2023-01-07T01:29:02.985Z,100424.94
2023-01-07T01:31:31.688Z,100419.63
2023-01-07T01:33:59.760Z,100421.56
2023-01-07T01:36:26.395Z,100422.91
2023-01-07T01:38:57.419Z,100416.03
2023-01-07T01:41:24.704Z,100420.28
2023-01-07T01:43:53.784Z,100417.97
2023-01-07T01:46:39.961Z,100422.03
2023-01-07T01:49:14.564Z,100418.06
2023-01-07T01:51:41.653Z,100418.78
2023-01-07T01:54:09.818Z,100416.16
2023-01-07T01:56:38.589Z,100405.44
2023-01-07T01:59:06.712Z,100401.31
2023-01-07T02:01:35.246Z,100407.09
2023-01-07T02:04:05.436Z,100403.72
2023-01-07T02:06:32.687Z,100397.34
2023-01-07T02:08:59.410Z,100401.69
2023-01-07T02:11:50.205Z,100395.53
2023-01-07T02:14:21.560Z,100393.47
2023-01-07T02:16:57.375Z,100398.66
2023-01-07T02:19:50.188Z,100397.09
2023-01-07T02:22:37.854Z,100395.28
2023-01-07T02:25:25.097Z,100393.47
2023-01-07T02:28:00.685Z,100389.88
2023-01-07T02:30:34.046Z,100384.06
2023-01-07T02:33:00.713Z,100381.66
2023-01-07T02:35:30.312Z,100375.28
2023-01-07T02:38:15.996Z,100367.31
2023-01-07T02:41:05.868Z,100371.75
2023-01-07T02:43:35.550Z,100366.56
2023-01-07T02:46:04.158Z,100361.13
2023-01-07T02:48:30.850Z,100361.38
2023-01-07T02:50:57.427Z,100362.47
2023-01-07T02:53:23.972Z,100357.16
2023-01-07T02:56:09.376Z,100352.59
2023-01-07T02:58:40.210Z,100351.50
2023-01-07T03:01:10.206Z,100346.94
2023-01-07T03:03:43.816Z,100351.41
2023-01-07T03:06:21.370Z,100350.44
2023-01-07T03:08:50.814Z,100342.81
2023-01-07T03:11:19.142Z,100341.50
2023-01-07T03:14:09.231Z,100329.94
2023-01-07T03:16:39.861Z,100328.97
2023-01-07T03:19:18.556Z,100326.22
2023-01-07T03:21:46.097Z,100325.00
2023-01-07T03:24:13.418Z,100326.66
2023-01-07T03:26:40.630Z,100329.06
2023-01-07T03:29:07.593Z,100324.38
2023-01-07T03:31:34.904Z,100323.78
2023-01-07T03:34:05.620Z,100322.09
2023-01-07T03:36:34.131Z,100322.94
2023-01-07T03:39:01.115Z,100318.56
2023-01-07T03:41:47.055Z,100309.91
2023-01-07T03:44:14.075Z,100314.47
2023-01-07T03:46:40.669Z,100309.19
2023-01-07T03:49:07.753Z,100306.78
2023-01-07T03:51:36.096Z,100307.59
2023-01-07T03:54:03.123Z,100307.84
2023-01-07T03:56:29.715Z,100297.13
2023-01-07T03:58:56.798Z,100298.81
2023-01-07T04:01:23.486Z,100295.19
2023-01-07T04:03:50.264Z,100297.00
2023-01-07T04:06:16.985Z,100288.31
2023-01-07T04:08:43.642Z,100289.63
2023-01-07T04:11:10.543Z,100290.59
2023-01-07T04:13:38.239Z,100287.94
2023-01-07T04:16:04.898Z,100286.00
2023-01-07T04:18:31.732Z,100285.06
2023-01-07T04:20:58.377Z,100277.13
2023-01-07T04:23:25.100Z,100269.38
2023-01-07T04:25:53.489Z,100276.38
2023-01-07T04:28:22.987Z,100274.34
2023-01-07T04:30:50.085Z,100269.88
2023-01-07T04:33:17.421Z,100266.03
2023-01-07T04:35:45.812Z,100263.97
2023-01-07T04:38:12.582Z,100270.25
2023-01-07T04:40:39.178Z,100262.28
2023-01-07T04:43:05.786Z,100258.56
2023-01-07T04:45:33.062Z,100258.31
2023-01-07T04:48:00.971Z,100253.13
2023-01-07T04:50:28.566Z,100259.06
2023-01-07T04:52:55.519Z,100260.84
2023-01-07T04:55:22.765Z,100253.03
2023-01-07T04:57:49.864Z,100259.50
2023-01-07T05:00:17.544Z,100242.78
2023-01-07T05:02:47.693Z,100248.66
2023-01-07T05:05:14.288Z,100245.06
2023-01-07T05:07:41.020Z,100237.38
2023-01-07T05:10:08.900Z,100240.00
2023-01-07T05:12:36.267Z,100232.16
2023-01-07T05:15:04.614Z,100228.53
2023-01-07T05:17:32.389Z,100230.34
2023-01-07T05:20:00.455Z,100233.84
2023-01-07T05:22:27.000Z,100224.81
2023-01-07T05:24:54.467Z,100228.28
2023-01-07T05:27:21.214Z,100223.63
2023-01-07T05:29:47.858Z,100224.69
2023-01-07T05:32:14.447Z,100224.69
2023-01-07T05:34:41.379Z,100213.03
2023-01-07T05:37:08.180Z,100218.31
2023-01-07T05:39:35.151Z,100213.47
2023-01-07T05:42:04.388Z,100208.31
2023-01-07T05:44:30.984Z,100203.00
2023-01-07T05:46:57.539Z,100201.44
2023-01-07T05:49:24.026Z,100199.63
2023-01-07T05:51:50.531Z,100207.69
2023-01-07T05:54:17.060Z,100195.28
2023-01-07T05:56:43.624Z,100190.94
2023-01-07T05:59:10.117Z,100193.50
2023-01-07T06:01:36.636Z,100196.25
2023-01-07T06:04:03.152Z,100193.72
2023-01-07T06:06:29.714Z,100189.63
2023-01-07T06:08:56.294Z,100189.97
2023-01-07T06:11:22.847Z,100185.53
2023-01-07T06:13:49.474Z,100174.47
2023-01-07T06:16:16.308Z,100184.19
2023-01-07T06:18:42.874Z,100179.28
2023-01-07T06:21:09.671Z,100180.69
2023-01-07T06:23:37.115Z,100176.38
2023-01-07T06:26:03.659Z,100181.91
2023-01-07T06:28:30.155Z,100173.00
2023-01-07T06:30:56.898Z,100178.28
2023-01-07T06:33:23.459Z,100167.94
2023-01-07T06:35:50.168Z,100174.91
2023-01-07T06:38:16.727Z,100167.31
2023-01-07T06:40:44.610Z,100166.97
2023-01-07T06:43:11.259Z,100172.03
2023-01-07T06:45:39.033Z,100163.00
2023-01-07T06:48:06.806Z,100154.44
2023-01-07T06:50:33.306Z,100154.56
2023-01-07T06:52:59.809Z,100149.16
2023-01-07T06:55:26.326Z,100151.81
2023-01-07T06:57:53.031Z,100151.91
2023-01-07T07:00:19.588Z,100150.13
2023-01-07T07:02:46.213Z,100148.31
2023-01-07T07:05:12.977Z,100142.88
2023-01-07T07:07:39.650Z,100137.38
2023-01-07T07:10:07.698Z,100140.97
2023-01-07T07:12:34.762Z,100130.84
2023-01-07T07:15:01.536Z,100135.06
2023-01-07T07:17:28.089Z,100132.75
2023-01-07T07:19:54.597Z,100127.72
2023-01-07T07:22:21.109Z,100120.84
2023-01-07T07:24:47.928Z,100128.78
2023-01-07T07:27:14.469Z,100125.41
2023-01-07T07:29:41.077Z,100124.56
2023-01-07T07:32:08.695Z,100122.16
2023-01-07T07:34:36.084Z,100123.75
2023-01-07T07:37:02.733Z,100117.72
2023-01-07T07:39:29.323Z,100115.31
2023-01-07T07:41:56.098Z,100116.97
2023-01-07T07:44:22.891Z,100110.75
2023-01-07T07:46:49.585Z,100110.13
2023-01-07T07:49:16.158Z,100103.38
2023-01-07T07:51:42.721Z,100099.41
2023-01-07T07:54:09.278Z,100094.00
2023-01-07T07:56:35.878Z,100099.06
2023-01-07T07:59:02.394Z,100094.59
2023-01-07T08:01:28.991Z,100097.25
2023-01-07T08:03:55.724Z,100094.84
2023-01-07T08:06:22.291Z,100094.34
2023-01-07T08:08:48.815Z,100094.84
2023-01-07T08:11:15.536Z,100098.31
2023-01-07T08:13:42.061Z,100099.91
2023-01-07T08:16:08.985Z,100086.75
2023-01-07T08:18:35.631Z,100080.38
2023-01-07T08:21:02.206Z,100084.34
2023-01-07T08:23:29.887Z,100085.81
2023-01-07T08:25:59.055Z,100081.94
2023-01-07T08:28:25.533Z,100085.81
2023-01-07T08:30:51.989Z,100078.69
2023-01-07T08:33:18.490Z,100074.84
2023-01-07T08:35:45.517Z,100076.41
2023-01-07T08:38:12.010Z,100077.38
2023-01-07T08:40:40.698Z,100077.63
2023-01-07T08:43:07.635Z,100075.94
2023-01-07T08:45:35.675Z,100077.38
2023-01-07T08:48:02.242Z,100073.88
2023-01-07T08:50:29.519Z,100072.31
2023-01-07T08:52:56.228Z,100067.38
2023-01-07T08:55:22.780Z,100062.78
2023-01-07T08:57:49.577Z,100072.53
2023-01-07T09:00:16.618Z,100066.53
2023-01-07T09:02:43.236Z,100070.16
2023-01-07T09:05:10.178Z,100073.53
2023-01-07T09:07:36.737Z,100065.56
2023-01-07T09:10:03.324Z,100063.25
2023-01-07T09:12:29.852Z,100061.97
2023-01-07T09:14:56.506Z,100061.56
2023-01-07T09:17:24.265Z,100056.97
2023-01-07T09:19:50.929Z,100050.50
2023-01-07T09:22:20.138Z,100054.69
2023-01-07T09:24:47.997Z,100052.53
2023-01-07T09:27:16.537Z,100053.09
2023-01-07T09:29:43.260Z,100051.16
2023-01-07T09:32:10.492Z,100049.13
2023-01-07T09:34:38.235Z,100057.78
2023-01-07T09:37:04.981Z,100050.56
2023-01-07T09:39:31.821Z,100049.47
2023-01-07T09:42:05.098Z,100049.19
2023-01-07T09:44:31.555Z,100041.03
2023-01-07T09:46:58.070Z,100038.13
2023-01-07T09:49:26.057Z,100036.19
2023-01-07T09:51:54.545Z,100034.22
2023-01-07T09:54:23.830Z,100029.63
2023-01-07T09:58:33.460Z,100018.66
2023-01-07T10:01:23.211Z,100028.06
2023-01-07T10:04:19.174Z,100024.16
2023-01-07T10:06:57.084Z,100019.00
2023-01-07T10:09:26.769Z,100013.31
2023-01-07T10:12:06.413Z,100014.53
2023-01-07T10:14:59.350Z,100007.69
2023-01-07T10:17:29.592Z,99997.25
2023-01-07T10:20:09.002Z,100002.72
2023-01-07T10:22:38.433Z,99997.03
2023-01-07T10:25:15.737Z,99995.44
2023-01-07T10:27:43.877Z,99998.56
2023-01-07T10:30:25.824Z,99986.53
2023-01-07T10:33:05.595Z,99983.09
2023-01-07T10:35:34.319Z,99985.25
2023-01-07T10:38:04.706Z,99988.84
2023-01-07T10:41:05.407Z,99978.66
2023-01-07T10:43:38.025Z,99974.91
2023-01-07T10:46:29.128Z,99973.34
2023-01-07T10:48:55.712Z,99967.78
2023-01-07T10:51:37.356Z,99961.03
2023-01-07T10:54:16.251Z,99959.34
2023-01-07T10:56:48.714Z,99965.13
2023-01-07T10:59:18.526Z,99960.63
2023-01-07T11:01:50.154Z,99951.69
2023-01-07T11:04:17.185Z,99941.78
2023-01-07T11:07:26.232Z,99940.91
2023-01-07T11:09:53.614Z,99933.81
2023-01-07T11:12:45.155Z,99929.19
2023-01-07T11:15:37.129Z,99918.88
2023-01-07T11:18:29.407Z,99923.88
2023-01-07T11:20:57.641Z,99918.50
2023-01-07T11:23:42.852Z,99907.81
2023-01-07T11:26:27.476Z,99911.19
2023-01-07T11:29:00.175Z,99907.00
2023-01-07T11:31:47.512Z,99901.25
2023-01-07T11:34:38.026Z,99891.75
2023-01-07T11:37:05.296Z,99895.31
2023-01-07T11:39:36.165Z,99893.59
2023-01-07T11:42:25.682Z,99886.63
2023-01-07T11:45:20.406Z,99880.16
2023-01-07T11:48:08.715Z,99879.50
2023-01-07T11:50:41.055Z,99870.69
2023-01-07T11:53:11.382Z,99861.63
2023-01-07T11:55:38.053Z,99864.84
2023-01-07T11:58:28.914Z,99852.41
2023-01-07T12:01:08.952Z,99843.03
2023-01-07T12:03:37.421Z,99839.56
2023-01-07T12:06:24.007Z,99832.03
2023-01-07T12:09:04.842Z,99823.63
2023-01-07T12:11:34.853Z,99818.91
2023-01-07T12:14:12.133Z,99813.59
2023-01-07T12:16:38.875Z,99807.31
2023-01-07T12:19:23.243Z,99798.81
2023-01-07T12:22:10.744Z,99799.19
2023-01-07T12:24:56.234Z,99785.78
2023-01-07T12:27:37.735Z,99782.31
2023-01-07T12:30:07.288Z,99780.63
2023-01-07T12:32:49.121Z,99763.59
2023-01-07T12:35:19.343Z,99765.53
2023-01-07T12:37:53.797Z,99763.00
2023-01-07T12:40:31.885Z,99763.00
2023-01-07T12:43:13.617Z,99757.56
2023-01-07T12:45:46.554Z,99753.09
2023-01-07T12:48:21.102Z,99746.78
2023-01-07T12:50:50.165Z,99739.22
2023-01-07T12:53:34.108Z,99738.13
2023-01-07T12:56:04.838Z,99726.38
2023-01-07T12:58:47.034Z,99731.69
2023-01-07T13:01:29.138Z,99722.59
2023-01-07T13:04:12.939Z,99713.50
2023-01-07T13:06:44.917Z,99712.81
2023-01-07T13:09:27.745Z,99713.50
2023-01-07T13:12:40.788Z,99714.63
2023-01-07T13:15:30.935Z,99705.28
2023-01-07T13:17:59.725Z,99700.38
2023-01-07T13:20:29.190Z,99697.03
2023-01-07T13:22:56.663Z,99692.66
2023-01-07T13:25:45.584Z,99685.69
2023-01-07T13:28:47.099Z,99682.75
2023-01-07T13:31:13.716Z,99678.31
2023-01-07T13:34:08.340Z,99675.66
2023-01-07T13:36:45.089Z,99677.31
2023-01-07T13:39:27.230Z,99677.03
2023-01-07T13:42:02.104Z,99670.34
2023-01-07T13:44:54.521Z,99674.25
2023-01-07T13:47:22.957Z,99668.50
2023-01-07T13:50:00.777Z,99669.50
2023-01-07T13:52:30.525Z,99671.47
2023-01-07T13:55:02.817Z,99674.94
2023-01-07T13:57:29.548Z,99676.91
2023-01-07T13:59:57.813Z,99673.25
2023-01-07T14:02:26.004Z,99691.00
2023-01-07T14:05:10.648Z,99675.50
2023-01-07T14:07:57.743Z,99680.66
2023-01-07T14:10:35.500Z,99679.72
2023-01-07T14:13:08.753Z,99677.47
2023-01-07T14:15:39.325Z,99678.47
2023-01-07T14:18:28.310Z,99665.72
2023-01-07T14:21:40.799Z,99670.22
2023-01-07T14:24:44.956Z,99672.88
2023-01-07T14:27:57.415Z,99676.75
2023-01-07T14:30:36.432Z,99682.78
2023-01-07T14:33:04.512Z,99670.75
2023-01-07T14:35:36.221Z,99676.06
2023-01-07T14:38:31.779Z,99671.75
2023-01-07T14:41:11.036Z,99674.09
2023-01-07T14:43:40.500Z,99664.47
2023-01-07T14:46:08.615Z,99668.78
2023-01-07T14:48:37.000Z,99666.44
2023-01-07T14:51:29.125Z,99669.19
2023-01-07T14:54:17.882Z,99670.59
2023-01-07T14:57:01.892Z,99668.78
2023-01-07T14:59:34.548Z,99668.22
2023-01-07T15:02:32.027Z,99654.66
2023-01-07T15:05:17.697Z,99661.34
2023-01-07T15:07:48.692Z,99652.00
2023-01-07T15:10:41.490Z,99657.31
2023-01-07T15:13:32.818Z,99658.28
2023-01-07T15:16:03.840Z,99653.53
2023-01-07T15:18:52.520Z,99648.06
2023-01-07T15:21:41.017Z,99647.34
2023-01-07T15:24:13.899Z,99640.50
2023-01-07T15:26:50.454Z,99641.81
2023-01-07T15:29:32.235Z,99635.91
2023-01-07T15:32:45.761Z,99637.59
2023-01-07T15:35:25.275Z,99632.81
2023-01-07T15:37:52.069Z,99634.78
2023-01-07T15:40:20.692Z,99623.22
2023-01-07T15:42:48.935Z,99631.16
2023-01-07T15:45:20.528Z,99625.44
2023-01-07T15:47:47.225Z,99624.72
2023-01-07T15:50:27.834Z,99624.03
2023-01-07T15:53:03.713Z,99625.41
2023-01-07T15:55:39.009Z,99621.22
2023-01-07T15:58:16.809Z,99613.84
2023-01-07T16:00:43.878Z,99620.81
2023-01-07T16:03:15.777Z,99626.78
2023-01-07T16:05:42.951Z,99616.88
2023-01-07T16:08:18.609Z,99625.38
2023-01-07T16:11:02.264Z,99631.91
2023-01-07T16:13:30.225Z,99622.72
2023-01-07T16:16:03.389Z,99621.03
2023-01-07T16:18:33.414Z,99623.38
2023-01-07T16:21:04.576Z,99627.50
2023-01-07T16:23:36.185Z,99631.66
2023-01-07T16:26:04.540Z,99623.59
2023-01-07T16:28:34.832Z,99616.97
2023-01-07T16:31:04.078Z,99624.50
2023-01-07T16:33:32.649Z,99622.81
2023-01-07T16:36:01.096Z,99628.13
2023-01-07T16:38:28.130Z,99622.66
2023-01-07T16:40:55.244Z,99623.75
2023-01-07T16:43:40.186Z,99626.22
2023-01-07T16:46:26.409Z,99628.16
2023-01-07T16:49:11.350Z,99612.78
2023-01-07T16:51:41.236Z,99622.88
2023-01-07T16:54:25.903Z,99622.03
2023-01-07T16:57:12.743Z,99618.44
2023-01-07T16:59:45.704Z,99619.97
2023-01-07T17:02:30.976Z,99611.56
2023-01-07T17:05:13.397Z,99603.47
2023-01-07T17:07:40.443Z,99602.41
2023-01-07T17:10:07.823Z,99604.22
2023-01-07T17:12:39.363Z,99597.91
2023-01-07T17:15:31.218Z,99595.19
2023-01-07T17:18:13.060Z,99592.16
2023-01-07T17:20:43.370Z,99585.22
2023-01-07T17:23:25.351Z,99582.59
2023-01-07T17:25:59.018Z,99583.88
2023-01-07T17:28:27.035Z,99579.75
2023-01-07T17:30:54.096Z,99580.13
2023-01-07T17:33:22.688Z,99574.56
2023-01-07T17:35:51.338Z,99584.34
2023-01-07T17:38:18.909Z,99572.00
2023-01-07T17:40:46.008Z,99576.22
2023-01-07T17:43:37.532Z,99581.16
2023-01-07T17:46:05.114Z,99572.47
2023-01-07T17:48:32.632Z,99575.38
2023-01-07T17:51:01.329Z,99581.78
2023-01-07T17:53:37.852Z,99578.59
2023-01-07T17:56:04.730Z,99576.97
2023-01-07T17:58:33.869Z,99578.34
2023-01-07T18:01:02.800Z,99579.81
2023-01-07T18:03:29.663Z,99584.72
2023-01-07T18:05:56.498Z,99583.06
2023-01-07T18:08:23.316Z,99586.09
2023-01-07T18:11:10.158Z,99582.59
2023-01-07T18:13:37.140Z,99582.59
2023-01-07T18:16:04.049Z,99585.59
2023-01-07T18:18:30.804Z,99580.09
2023-01-07T18:20:58.316Z,99571.31
2023-01-07T18:23:25.440Z,99570.28
2023-01-07T18:25:52.154Z,99569.81
2023-01-07T18:28:18.822Z,99567.44
2023-01-07T18:30:45.576Z,99572.13
2023-01-07T18:33:12.852Z,99575.38
2023-01-07T18:35:40.600Z,99573.94
2023-01-07T18:38:16.875Z,99565.91
2023-01-07T18:40:43.839Z,99563.25
2023-01-07T18:43:14.653Z,99563.59
2023-01-07T18:45:43.003Z,99562.88
2023-01-07T18:48:11.035Z,99562.88
2023-01-07T18:50:41.644Z,99554.38
2023-01-07T18:53:09.556Z,99559.88
2023-01-07T18:55:37.429Z,99545.94
2023-01-07T18:58:04.328Z,99556.03
2023-01-07T19:00:31.120Z,99543.91
2023-01-07T19:02:58.391Z,99546.31
2023-01-07T19:05:25.855Z,99547.84
2023-01-07T19:07:53.022Z,99536.72
2023-01-07T19:10:19.794Z,99534.63
2023-01-07T19:12:46.559Z,99550.91
2023-01-07T19:15:13.278Z,99541.41
2023-01-07T19:17:39.946Z,99543.72
2023-01-07T19:20:08.357Z,99543.47
2023-01-07T19:22:35.166Z,99544.19
2023-01-07T19:25:02.048Z,99543.81
2023-01-07T19:27:28.831Z,99541.31
2023-01-07T19:29:55.508Z,99546.25
2023-01-07T19:32:22.341Z,99541.31
2023-01-07T19:34:52.296Z,99542.41
2023-01-07T19:37:19.424Z,99541.91
2023-01-07T19:39:46.183Z,99548.28
2023-01-07T19:42:12.891Z,99550.00
2023-01-07T19:44:41.532Z,99556.25
2023-01-07T19:47:08.297Z,99553.16
2023-01-07T19:49:36.008Z,99546.63
2023-01-07T19:52:05.369Z,99552.28
2023-01-07T19:54:32.022Z,99537.75
2023-01-07T19:56:58.677Z,99549.88
2023-01-07T19:59:25.421Z,99545.53
2023-01-07T20:01:53.757Z,99536.06
2023-01-07T20:04:20.762Z,99540.63
2023-01-07T20:06:47.876Z,99525.84
2023-01-07T20:09:14.587Z,99528.75
2023-01-07T20:11:43.138Z,99526.84
2023-01-07T20:14:11.938Z,99529.84
2023-01-07T20:16:41.359Z,99523.50
2023-01-07T20:19:10.987Z,99535.75
2023-01-07T20:21:41.335Z,99537.19
2023-01-07T20:24:08.411Z,99522.75
2023-01-07T20:26:35.562Z,99523.97
2023-01-07T20:29:02.260Z,99523.88
2023-01-07T20:31:30.171Z,99518.59
2023-01-07T20:33:57.513Z,99523.84
2023-01-07T20:36:29.917Z,99521.34
2023-01-07T20:38:56.843Z,99513.31
2023-01-07T20:41:27.410Z,99511.75
2023-01-07T20:44:04.092Z,99505.66
2023-01-07T20:46:31.430Z,99505.66
2023-01-07T20:48:58.265Z,99505.28
2023-01-07T20:51:25.613Z,99495.69
2023-01-07T20:53:52.585Z,99510.31
2023-01-07T20:56:21.872Z,99521.75
2023-01-07T20:58:49.642Z,99517.44
2023-01-07T21:01:19.107Z,99510.34
2023-01-07T21:03:45.984Z,99519.09
2023-01-07T21:06:14.250Z,99521.28
2023-01-07T21:08:41.451Z,99518.84
2023-01-07T21:11:12.620Z,99506.25
2023-01-07T21:13:39.353Z,99509.03
2023-01-07T21:16:06.433Z,99508.91
2023-01-07T21:18:33.882Z,99511.44
2023-01-07T21:21:01.921Z,99509.63
2023-01-07T21:23:28.654Z,99510.22
2023-01-07T21:25:55.351Z,99508.78
2023-01-07T21:28:22.057Z,99495.94
2023-01-07T21:30:48.879Z,99503.88
2023-01-07T21:33:16.035Z,99500.16
2023-01-07T21:35:42.793Z,99494.41
2023-01-07T21:38:09.696Z,99496.78
2023-01-07T21:40:38.895Z,99492.25
2023-01-07T21:43:06.308Z,99492.72
2023-01-07T21:45:33.176Z,99498.97
2023-01-07T21:47:59.871Z,99494.53
2023-01-07T21:50:26.777Z,99493.81
2023-01-07T21:52:53.481Z,99502.22
2023-01-07T21:55:20.316Z,99502.59
2023-01-07T21:57:47.003Z,99497.78
2023-01-07T22:00:14.287Z,99497.81
2023-01-07T22:02:41.124Z,99494.19
2023-01-07T22:05:08.574Z,99488.56
2023-01-07T22:07:35.237Z,99493.94
2023-01-07T22:10:02.480Z,99486.28
2023-01-07T22:12:29.226Z,99478.59
2023-01-07T22:14:55.901Z,99483.03
2023-01-07T22:17:24.439Z,99482.19
2023-01-07T22:19:51.216Z,99484.97
2023-01-07T22:22:19.381Z,99482.56
2023-01-07T22:24:46.164Z,99488.19
2023-01-07T22:27:12.881Z,99488.06
2023-01-07T22:29:39.514Z,99487.72
2023-01-07T22:32:06.217Z,99484.81
2023-01-07T22:34:32.929Z,99478.09
2023-01-07T22:37:14.326Z,99479.66
2023-01-07T22:39:57.562Z,99490.69
2023-01-07T22:42:39.300Z,99491.31
2023-01-07T22:45:11.318Z,99489.28
2023-01-07T22:47:42.016Z,99491.31
2023-01-07T22:50:09.372Z,99498.16
2023-01-07T22:52:37.072Z,99494.31
2023-01-07T22:55:04.965Z,99483.63
2023-01-07T22:57:31.833Z,99492.28
2023-01-07T23:00:00.433Z,99482.81
2023-01-07T23:02:27.612Z,99478.09
2023-01-07T23:04:54.313Z,99474.63
2023-01-07T23:07:21.010Z,99470.44
2023-01-07T23:09:49.069Z,99469.34
2023-01-07T23:12:16.872Z,99459.88
2023-01-07T23:14:43.582Z,99456.88
2023-01-07T23:17:10.675Z,99455.78
2023-01-07T23:19:37.423Z,99456.16
2023-01-07T23:22:04.121Z,99442.97
2023-01-07T23:24:30.802Z,99444.63
2023-01-07T23:26:57.437Z,99446.28
2023-01-07T23:29:24.239Z,99445.47
2023-01-07T23:31:51.082Z,99439.97
2023-01-07T23:34:17.895Z,99438.16
2023-01-07T23:36:44.617Z,99436.13
2023-01-07T23:39:11.744Z,99442.09
2023-01-07T23:41:38.406Z,99436.22
2023-01-07T23:44:05.157Z,99429.75
2023-01-07T23:46:31.870Z,99422.06
2023-01-07T23:48:58.525Z,99423.63
2023-01-07T23:51:25.255Z,99420.88
2023-01-07T23:53:51.888Z,99420.88
2023-01-07T23:56:19.836Z,99428.41
2023-01-07T23:58:46.766Z,99429.03
